Sarlat Domme Airfield

LFDS · Dordonha, Nouvelle-Aquitaine, França

História da METAR LFDS · Sarlat Domme Airfield

Abaixo você vê METARs dos últimos dias. Selecione um ano para navegar pelos METARs mais antigos, a partir do ano 2007.

20 de junho de 2024

Hora Código Clima Temp. Visibilidade Tecto Vento METAR/SPECI
10:30
L
17 °C 10 km+ 200 ft Var Var 2 kt METAR LFSL 200830Z AUTO VRB02KT 9999 -RA OVC002/// ///CB 17/16 Q1015 TEMPO 1000 TSRA
10:30
L
17 °C 10 km+ 200 ft Var Var 2 kt METAR LFSL 200830Z AUTO VRB02KT 9999 -RA OVC002/// //////CB 17/16 Q1015 TEMPO 1000 TSRA
10:00
L
17 °C 8 km 200 ft 320° 320° 5 kt METAR LFSL 200800Z AUTO 32005KT 290V360 8000 -RA OVC002/// ///TCU 17/17 Q1015 TEMPO 2000 SHRA BKN002 BKN050CB
09:30
L
17 °C 3,3 km 200 ft 310° 310° 7 kt METAR LFSL 200730Z AUTO 31007KT 3300 -RA BR OVC002/// //////TCU 17/16 Q1015 TEMPO 2000 SHRA BKN002 BKN050CB
09:00
L
17 °C 3,9 km - 330° 330° 4 kt METAR LFSL 200700Z AUTO 33004KT 310V010 3900 -RA BR VV/// ///TCU 17/16 Q1015 TEMPO 0800 FG BKN002 BKN050CB
08:30
L
17 °C 1,4 km - 290° 290° 5 kt METAR LFSL 200630Z AUTO 29005KT 260V320 1600 1400 R29///// BR VV/// ///CB 17/16 Q1016 TEMPO SHRA BKN002 BKN050CB
08:00
L
17 °C 1,6 km - 290° 290° 6 kt METAR LFSL 200600Z AUTO 29006KT 260V320 1600 BR VV/// 17/16 Q1016 TEMPO SHRA BKN002 BKN050CB
07:30
L
17 °C 8 km 100 ft 290° 290° 4 kt METAR LFSL 200530Z AUTO 29004KT 250V320 8000 -RA OVC001 17/17 Q1016 TEMPO 0500 -TSRA BKN002 BKN010 BKN050CB
07:00
L
17 °C 9 km 100 ft Var Var 3 kt METAR LFSL 200500Z AUTO VRB03KT 9000 OVC001 17/17 Q1016 TEMPO 0500 -TSRA BKN002 BKN010 BKN050CB
06:30
L
17 °C 10 km+ 100 ft 080° 080° 3 kt METAR LFSL 200430Z AUTO 08003KT 030V110 9999 OVC001 17/17 Q1015 TEMPO 0500 -TSRA BKN002 BKN010 BKN050CB
06:00
L
17 °C 10 km+ 200 ft 290° 290° 3 kt METAR LFSL 200400Z AUTO 29003KT 230V340 9999 OVC002/// ///TCU 17/16 Q1016 TEMPO 0500 -TSRA BKN002 BKN010 BKN050CB
05:30
L
17 °C 10 km+ 400 ft Var Var 3 kt METAR LFSL 200330Z AUTO VRB03KT 9999 RA BKN004/// OVC038/// //////CB 17/17 Q1015 TEMPO 0500 -TSRA
05:00
L
18 °C 10 km+ 200 ft 300° 300° 4 kt METAR LFSL 200300Z AUTO 30004KT 230V340 9999 BKN002/// BKN008/// OVC036/// //////CB 18/17 Q1015 TEMPO 0500 -TSRA
04:30
V
17 °C 10 km+ 3.200 ft Var Var 2 kt METAR LFSL 200230Z AUTO VRB02KT 9999 SCT003/// BKN032/// BKN048/// //////CB 17/17 Q1016
04:00
V
17 °C 10 km+ 10.000 ft Var Var 1 kt METAR LFSL 200200Z AUTO VRB01KT 9999 -RA FEW040/// SCT052/// OVC100/// ///CB 17/16 Q1016
03:30
V
17 °C 10 km+ 4.400 ft 260° 260° 4 kt METAR LFSL 200130Z AUTO 26004KT 230V300 9999 -RA FEW028/// BKN044/// BKN050/// ///CB 17/16 Q1015
03:00
V
18 °C 10 km+ - 340° 340° 4 kt METAR LFSL 200100Z AUTO 34004KT 290V050 9999 RA //////CB 18/17 Q1015
02:30
V
18 °C 10 km+ 12.000 ft 310° 310° 5 kt METAR LFSL 200030Z AUTO 31005KT 240V350 9999 RA VCTS FEW004/// OVC120/// ///CB 18/17 Q1016
02:00
I
19 °C 3,7 km 1.000 ft Var Var 3 kt METAR LFSL 200000Z AUTO VRB03KT 3700 +TSRA BR BKN010/// BKN016/// BKN022/// ///CB 19/17 Q1016
01:30
I
19 °C 10 km+ 700 ft 020° 020° 3 kt METAR LFSL 192330Z AUTO 02003KT 340V050 9999 VCTS OVC007/// //////CB 19/17 Q1016
01:00
I
19 °C 10 km+ 800 ft 340° 340° 5 kt METAR LFSL 192300Z AUTO 34005KT 310V010 9999 BKN008/// BKN021/// OVC028/// ///CB 19/17 Q1016
00:30
V
19 °C 10 km+ 4.900 ft 330° 330° 6 kt METAR LFSL 192230Z AUTO 33006KT 9999 FEW008/// SCT024/// BKN049/// //////CB 19/17 Q1016
00:00
V
19 °C 10 km+ 4.600 ft 310° 310° 6 kt METAR LFSL 192200Z AUTO 31006KT 9999 OVC046/// //////CB 19/17 Q1015

19 de junho de 2024

Hora Código Clima Temp. Visibilidade Tecto Vento METAR/SPECI
23:30
V
20 °C 10 km+ 4.100 ft Var Var 3 kt METAR LFSL 192130Z AUTO VRB03KT 9999 BKN041/// //////CB 20/17 Q1016
23:00
V
20 °C 10 km+ - Var Var 1 kt METAR LFSL 192100Z AUTO VRB01KT 9999 //////CB 20/16 Q1015
22:30
V
20 °C 10 km+ 11.000 ft 300° 300° 6 kt METAR LFSL 192030Z AUTO 30006KT 9999 FEW042/// SCT066/// BKN110/// ///CB 20/17 Q1014
22:00
V
21 °C 10 km+ 3.900 ft Var Var 3 kt METAR LFSL 192000Z AUTO VRB03KT 9999 BKN039/// BKN049/// OVC056/// //////CB 21/17 Q1015 TEMPO 4000 SHRA BECMG NSC
21:30
V
21 °C 10 km+ 5.400 ft 300° 300° 3 kt METAR LFSL 191930Z AUTO 30003KT 9999 FEW040 SCT046 BKN054 21/17 Q1015 TEMPO 4000 SHRA BKN030TCU
21:00
V
21 °C 10 km+ 3.500 ft 310° 310° 4 kt METAR LFSL 191900Z AUTO 31004KT 9999 BKN035 BKN060 BKN100 21/17 Q1015 TEMPO VRB15G25KT 4000 SHRA BKN030TCU
20:30
V
22 °C 10 km+ - 350° 350° 5 kt METAR LFSL 191830Z AUTO 35005KT 9999 FEW035 22/17 Q1014 TEMPO VRB15G25KT 4000 SHRA BKN030TCU
20:00
V
22 °C 10 km+ 3.400 ft 320° 320° 9 kt METAR LFSL 191800Z AUTO 32009KT 290V360 9999 BKN034 BKN044 BKN052 22/17 Q1014 TEMPO VRB15G25KT 1000 TSRA BKN010 BKN020CB
19:30
V
23 °C 10 km+ 3.100 ft 330° 330° 9 kt METAR LFSL 191730Z AUTO 33009KT 9999 BKN031 OVC046 23/17 Q1014 TEMPO VRB15G25KT 1000 TSRA BKN010 BKN020CB
19:00
V
24 °C 10 km+ 3.200 ft 290° 290° 5 kt METAR LFSL 191700Z AUTO 29005KT 250V320 9999 FEW026/// BKN032/// BKN039/// //////TCU 24/16 Q1014 TEMPO VRB15G25KT 1000 TSRA BKN010 BKN020CB
18:30
V
24 °C 10 km+ 3.100 ft 310° 310° 7 kt METAR LFSL 191630Z AUTO 31007KT 9999 BKN031/// OVC041/// ///CB 24/17 Q1014 TEMPO VRB15G25KT 1000 TSRA BKN010 BKN020CB
18:00
V
24 °C 10 km+ - 320° 320° 6 kt METAR LFSL 191600Z AUTO 32006KT 290V350 9999 FEW041 SCT064 24/18 Q1014 TEMPO VRB15G25KT 1000 TSRA BKN010 BKN020CB
17:30
V
23 °C 10 km+ 4.400 ft 330° 330° 6 kt METAR LFSL 191530Z AUTO 33006KT 290V010 9999 SCT038/// BKN044/// BKN054/// //////CB 23/18 Q1014 TEMPO VRB15G25KT 1000 TSRA BKN010 BKN020CB
17:00
V
23 °C 10 km+ 4.000 ft 290° 290° 8 kt METAR LFSL 191500Z AUTO 29008KT 260V320 9999 SCT032/// BKN040/// BKN052/// ///TCU 23/18 Q1014 TEMPO VRB15G25KT 1000 TSRA BKN010 BKN020CB
16:30
V
23 °C 10 km+ 3.100 ft 270° 270° 7 kt METAR LFSL 191430Z AUTO 27007KT 230V310 9999 BKN031/// BKN039/// OVC049/// ///CB 23/18 Q1014 TEMPO VRB15G25KT 1000 TSRA BKN010 BKN020CB
16:00
V
24 °C 10 km+ 3.700 ft 320° 320° 6 kt METAR LFSL 191400Z AUTO 32006KT 290V350 9999 FEW029 BKN037 BKN046 24/18 Q1014 TEMPO VRB15G25KT 1000 TSRA BKN010 BKN020CB
15:30
V
25 °C 10 km+ - 340° 340° 3 kt METAR LFSL 191330Z AUTO 34003KT 280V080 9999 FEW049 SCT060 25/17 Q1014 TEMPO VRB15G25KT 1000 TSRA BKN010 BKN020CB
15:00
V
24 °C 10 km+ 3.100 ft Var Var 3 kt METAR LFSL 191300Z AUTO VRB03KT 9999 BKN031 BKN039 BKN045 24/17 Q1014 TEMPO VRB15G25KT 1000 TSRA BKN010 BKN020CB
14:30
V
24 °C 10 km+ 4.000 ft Var Var 2 kt METAR LFSL 191230Z AUTO VRB02KT 9999 FEW026/// BKN040/// OVC047/// ///CB 24/17 Q1014 TEMPO VRB15G25KT 1000 TSRA BKN010 BKN020CB
14:00
V
24 °C 10 km+ 3.600 ft Var Var 3 kt METAR LFSL 191200Z AUTO VRB03KT 9999 BKN036/// BKN044/// OVC068/// //////TCU 24/17 Q1014 TEMPO 4000 SHRA
13:30
V
23 °C 10 km+ 4.100 ft 260° 260° 3 kt METAR LFSL 191130Z AUTO 26003KT 170V310 9999 FEW026 SCT032 OVC041 23/16 Q1014 TEMPO 4000 SHRA BKN030TCU
13:00
V
24 °C 10 km+ 3.600 ft Var Var 3 kt METAR LFSL 191100Z AUTO VRB03KT 9999 SCT030/// BKN036/// BKN066/// //////CB 24/17 Q1014 BECMG NSC
12:30
V
25 °C 10 km+ 7.000 ft 100° 100° 3 kt METAR LFSL 191030Z AUTO 10003KT 050V150 9999 FEW025/// BKN070/// //////CB 25/17 Q1014 BECMG NSC
12:00
V
24 °C 10 km+ 6.400 ft Var Var 3 kt METAR LFSL 191000Z AUTO VRB03KT 9999 FEW023 BKN064 BKN074 24/17 Q1014 NOSIG
11:30
V
22 °C 10 km+ - 150° 150° 3 kt METAR LFSL 190930Z AUTO 15003KT 090V240 CAVOK 22/16 Q1013 NOSIG
11:00
V
22 °C 10 km+ - 120° 120° 7 kt METAR LFSL 190900Z AUTO 12007KT 080V150 CAVOK 22/16 Q1013 NOSIG
10:30
V
21 °C 10 km+ - 120° 120° 5 kt METAR LFSL 190830Z AUTO 12005KT 070V180 CAVOK 21/17 Q1013 NOSIG
10:00
V
20 °C 10 km+ 8.600 ft 060° 060° 4 kt METAR LFSL 190800Z AUTO 06004KT 030V120 9999 FEW009 BKN086 20/17 Q1013 NOSIG
09:30
V
19 °C 10 km+ 9.000 ft Var Var 3 kt METAR LFSL 190730Z AUTO VRB03KT 9999 FEW007 BKN090 19/18 Q1013 NOSIG
09:00
V
19 °C 10 km+ 4.400 ft 340° 340° 7 kt METAR LFSL 190700Z AUTO 34007KT 9999 -RA FEW010/// SCT030/// BKN044/// ///CB 19/17 Q1013 TEMPO 1000 TSRA BECMG NSC
08:30
V
20 °C 10 km+ - 330° 330° 6 kt METAR LFSL 190630Z AUTO 33006KT 280V010 9999 ///CB 20/17 Q1013 TEMPO 1000 TSRA BECMG NSC
08:00
V
20 °C 10 km+ - Var Var 2 kt METAR LFSL 190600Z AUTO VRB02KT 9999 //////CB 20/17 Q1013 TEMPO 1000 TSRA
07:30
V
19 °C 10 km+ - 090° 090° 1 kt METAR LFSL 190530Z AUTO 09001KT CAVOK 19/16 Q1012 TEMPO 4000 -SHRA BKN035TCU FEW050CB
07:00
V
18 °C 10 km+ - Var Var 3 kt METAR LFSL 190500Z AUTO VRB03KT CAVOK 18/17 Q1012 TEMPO 4000 -SHRA BKN035TCU FEW050CB
06:30
V
18 °C 10 km+ - 070° 070° 4 kt METAR LFSL 190430Z AUTO 07004KT 030V110 CAVOK 18/16 Q1012 TEMPO 4000 -SHRA BKN035TCU FEW050CB
06:00
V
18 °C 10 km+ - Var Var 2 kt METAR LFSL 190400Z AUTO VRB02KT CAVOK 18/16 Q1012 TEMPO 4000 -SHRA BKN035TCU FEW050CB
05:30
V
18 °C 10 km+ - 360° 360° 7 kt METAR LFSL 190330Z AUTO 36007KT 330V070 9999 //////TCU 18/16 Q1011 TEMPO 4000 -SHRA BKN035TCU FEW050CB
05:00
V
18 °C 10 km+ - 360° 360° 0 kt METAR LFSL 190300Z AUTO 00000KT 9999 //////TCU 18/16 Q1012 TEMPO 4000 -SHRA BKN035TCU FEW050CB
04:30
V
18 °C 10 km+ - 310° 310° 5 kt METAR LFSL 190230Z AUTO 31005KT 9999 //////CB 18/16 Q1012
04:00
V
18 °C 10 km+ - Var Var 2 kt METAR LFSL 190200Z AUTO VRB02KT 9999 //////TCU 18/16 Q1012
03:30
V
19 °C 10 km+ - Var Var 1 kt METAR LFSL 190130Z AUTO VRB01KT CAVOK 19/17 Q1012
03:00
V
19 °C 10 km+ - 240° 240° 4 kt METAR LFSL 190100Z AUTO 24004KT 190V280 CAVOK 19/16 Q1012
02:30
V
20 °C 10 km+ - 110° 110° 4 kt METAR LFSL 190030Z AUTO 11004KT CAVOK 20/18 Q1011
02:00
V
19 °C 10 km+ - 130° 130° 5 kt METAR LFSL 190000Z AUTO 13005KT 9999 ///TCU 19/17 Q1012
01:30
V
19 °C 10 km+ 10.000 ft 160° 160° 5 kt METAR LFSL 182330Z AUTO 16005KT 130V190 9999 SCT041/// OVC100/// ///CB 19/17 Q1013
01:00
V
20 °C 10 km+ - Var Var 2 kt METAR LFSL 182300Z AUTO VRB02KT 9999 -RA ///CB 20/17 Q1012
00:30
V
20 °C 10 km+ - 340° 340° 5 kt METAR LFSL 182230Z AUTO 34005KT 9999 ///TCU 20/16 Q1012
00:00
V
21 °C 10 km+ - 290° 290° 5 kt METAR LFSL 182200Z AUTO 29005KT 230V320 9999 //////TCU 21/18 Q1012

18 de junho de 2024

Hora Código Clima Temp. Visibilidade Tecto Vento METAR/SPECI
23:30
V
21 °C 10 km+ - 250° 250° 5 kt METAR LFSL 182130Z AUTO 25005KT 190V290 9999 -RA //////CB 21/18 Q1012
23:00
V
21 °C 10 km+ - 200° 200° 3 kt METAR LFSL 182100Z AUTO 20003KT 9999 //////CB 21/18 Q1012
22:30
V
21 °C 10 km+ - Var Var 3 kt METAR LFSL 182030Z AUTO VRB03KT 9999 //////TCU 21/18 Q1011
22:00
V
22 °C 10 km+ - 360° 360° 0 kt METAR LFSL 182000Z AUTO 00000KT 9999 ///TCU 22/18 Q1010 TEMPO VRB15G25KT 2000 -TSRAGS BKN050CB
21:30
V
22 °C 10 km+ - Var Var 2 kt METAR LFSL 181930Z AUTO VRB02KT CAVOK 22/18 Q1011 TEMPO VRB15G25KT 2000 -TSRAGS BKN050CB
21:00
V
23 °C 10 km+ - Var Var 3 kt METAR LFSL 181900Z AUTO VRB03KT CAVOK 23/18 Q1011 TEMPO VRB15G25KT 2000 -TSRAGS BKN050CB
20:30
V
23 °C 10 km+ - 340° 340° 6 kt METAR LFSL 181830Z AUTO 34006KT CAVOK 23/18 Q1011 TEMPO VRB15G25KT 2000 -TSRAGS BKN050CB
20:00
V
24 °C 10 km+ - 340° 340° 8 kt METAR LFSL 181800Z AUTO 34008KT CAVOK 24/18 Q1011 TEMPO 4000 SHRA BKN040TCU SCT050CB
19:30
V
25 °C 10 km+ - 350° 350° 7 kt METAR LFSL 181730Z AUTO 35007KT 310V010 CAVOK 25/18 Q1011 TEMPO 4000 SHRA BKN040TCU SCT050CB
19:00
V
26 °C 10 km+ - 330° 330° 6 kt METAR LFSL 181700Z AUTO 33006KT CAVOK 26/19 Q1011 TEMPO 16010KT
18:30
V
27 °C 10 km+ - Var Var 3 kt METAR LFSL 181630Z AUTO VRB03KT CAVOK 27/16 Q1011 NOSIG
18:00
V
27 °C 10 km+ - Var Var 3 kt METAR LFSL 181600Z AUTO VRB03KT CAVOK 27/16 Q1012 TEMPO BKN070CB
17:30
V
27 °C 10 km+ - 080° 080° 4 kt METAR LFSL 181530Z AUTO 08004KT 030V130 CAVOK 27/15 Q1011 TEMPO BKN070CB
17:00
V
27 °C 10 km+ - Var Var 1 kt METAR LFSL 181500Z AUTO VRB01KT CAVOK 27/15 Q1012 TEMPO BKN070CB
16:30
V
26 °C 10 km+ - 230° 230° 4 kt METAR LFSL 181430Z AUTO 23004KT 190V280 9999 ///CB 26/15 Q1013 BECMG NSC
16:00
V
27 °C 10 km+ - Var Var 3 kt METAR LFSL 181400Z AUTO VRB03KT CAVOK 27/15 Q1012 NOSIG
15:30
V
27 °C 10 km+ 14.000 ft 170° 170° 7 kt METAR LFSL 181330Z AUTO 17007KT 120V210 9999 FEW027 SCT110 BKN140 27/15 Q1012 NOSIG
15:00
V
26 °C 10 km+ - 160° 160° 6 kt METAR LFSL 181300Z AUTO 16006KT 120V210 9999 ///CB 26/15 Q1012 BECMG NSC
14:30
V
27 °C 10 km+ - 170° 170° 6 kt METAR LFSL 181230Z AUTO 17006KT 110V220 CAVOK 27/15 Q1012 NOSIG
14:00
V
27 °C 10 km+ - 150° 150° 7 kt METAR LFSL 181200Z AUTO 15007KT 080V220 CAVOK 27/15 Q1013 NOSIG
13:30
V
26 °C 10 km+ - 160° 160° 8 kt METAR LFSL 181130Z AUTO 16008KT 120V200 CAVOK 26/15 Q1013 NOSIG
13:00
V
25 °C 10 km+ - 150° 150° 7 kt METAR LFSL 181100Z AUTO 15007KT 110V200 CAVOK 25/15 Q1013 NOSIG
12:30
V
23 °C 10 km+ - 160° 160° 7 kt METAR LFSL 181030Z AUTO 16007KT 110V200 CAVOK 23/15 Q1013 NOSIG
12:00
V
22 °C 10 km+ - 150° 150° 7 kt METAR LFSL 181000Z AUTO 15007KT 120V190 9999 ///TCU 22/14 Q1013 BECMG NSC
11:30
V
22 °C 10 km+ - 150° 150° 6 kt METAR LFSL 180930Z AUTO 15006KT 110V220 CAVOK 22/14 Q1013 NOSIG
11:00
V
22 °C 10 km+ - 160° 160° 8 kt METAR LFSL 180900Z AUTO 16008KT 110V200 CAVOK 22/14 Q1013 NOSIG
10:30
V
21 °C 10 km+ - 170° 170° 8 kt METAR LFSL 180830Z AUTO 17008KT 130V210 CAVOK 21/14 Q1013 NOSIG
10:00
V
21 °C 10 km+ - 170° 170° 6 kt METAR LFSL 180800Z AUTO 17006KT 130V210 CAVOK 21/13 Q1013 NOSIG
09:30
V
21 °C 10 km+ - 140° 140° 8 kt METAR LFSL 180730Z AUTO 14008KT 100V190 CAVOK 21/13 Q1013 NOSIG
09:00
V
20 °C 10 km+ - 150° 150° 7 kt METAR LFSL 180700Z AUTO 15007KT 120V180 CAVOK 20/13 Q1013 NOSIG
08:30
V
19 °C 10 km+ - 150° 150° 5 kt METAR LFSL 180630Z AUTO 15005KT 120V180 CAVOK 19/13 Q1012 NOSIG
08:00
V
18 °C 10 km+ - 140° 140° 4 kt METAR LFSL 180600Z AUTO 14004KT 110V180 CAVOK 18/14 Q1012 NOSIG
Relatar uma mudança